Terminal Aerodrome Forecast
Issued by NWS Goodland, KS

Home | Current Version | Previous Version | Text Only | Print | Product List | Glossary On
Versions: 1 2 3 4 5 6 7 8 9 10 11 12 13 14 15 16 17 18 19 20
000
FTUS43 KGLD 172049 AAA
TAFGLD
TAF AMD
KGLD 172049Z 1721/1818 11008KT 1/4SM -FZDZ FZFG OVC003
     FM180200 VRB05KT 1/2SM -SHSN FZFG OVC004
     FM181000 VRB03KT 1/2SM FZFG VV002
     FM181500 25006KT 3SM BR BKN007=

USA.gov is the U.S. government's official web portal to all federal, state and local government web resources and services.